Time;durP1;ratioP1;P1;durP2;ratioP2;P2;SDS_P1;SDS_P2;PMS_P1;PMS_P2;Temp;Humidity;BMP_temperature;BMP_pressure;BME280_temperature;BME280_humidity;BME280_pressure;Samples;Min_cycle;Max_cycle;Signal;HPM_P1;HPM_P2
2020/12/07 00:01:26;;;;;;;3.03;2.00;;;20.90;46.80;;;;;;6219629;28;20088;-54
2020/12/07 00:04:26;;;;;;;2.95;1.80;;;20.90;46.70;;;;;;6219273;28;20042;-54
2020/12/07 00:07:27;;;;;;;3.00;2.00;;;20.90;46.80;;;;;;6219673;28;20034;-57
2020/12/07 00:10:27;;;;;;;3.25;2.05;;;20.90;46.70;;;;;;6233704;28;20025;-50
2020/12/07 00:13:28;;;;;;;2.58;1.80;;;20.90;46.80;;;;;;6244086;28;20024;-56
2020/12/07 00:16:28;;;;;;;3.03;1.77;;;20.90;46.70;;;;;;6244201;28;20083;-55
2020/12/07 00:19:29;;;;;;;2.95;1.83;;;20.90;46.60;;;;;;6244076;28;20060;-57
2020/12/07 00:22:30;;;;;;;2.83;1.75;;;20.90;46.70;;;;;;6243315;28;20029;-55
2020/12/07 00:25:31;;;;;;;3.45;1.80;;;20.90;46.60;;;;;;6245045;28;20055;-55
2020/12/07 00:28:31;;;;;;;4.18;2.17;;;20.90;46.60;;;;;;6243572;28;20075;-53
2020/12/07 00:31:33;;;;;;;3.53;1.80;;;20.90;46.60;;;;;;6243174;28;20061;-58
2020/12/07 00:34:33;;;;;;;2.55;1.80;;;20.90;46.60;;;;;;6243768;28;20112;-55
2020/12/07 00:37:34;;;;;;;3.42;1.67;;;20.90;46.60;;;;;;6243614;28;20026;-54
2020/12/07 00:40:34;;;;;;;2.80;1.80;;;20.90;46.70;;;;;;6243390;28;20521;-52
2020/12/07 00:43:35;;;;;;;3.88;2.13;;;20.90;46.70;;;;;;6243088;28;20511;-54
2020/12/07 00:46:35;;;;;;;1.90;1.60;;;20.80;46.70;;;;;;6243287;28;20033;-50
2020/12/07 00:49:37;;;;;;;2.88;1.90;;;20.90;46.70;;;;;;6243124;28;20029;-54
2020/12/07 00:52:38;;;;;;;2.65;1.88;;;20.80;46.90;;;;;;6242621;28;20458;-57
2020/12/07 00:55:38;;;;;;;3.25;2.00;;;20.80;46.60;;;;;;6243437;28;20040;-56
2020/12/07 00:58:39;;;;;;;4.80;2.10;;;20.80;46.70;;;;;;6242754;28;20540;-51
2020/12/07 01:01:39;;;;;;;2.22;1.70;;;20.80;46.70;;;;;;6242987;28;20383;-52
2020/12/07 01:04:40;;;;;;;2.72;1.90;;;20.80;46.70;;;;;;6236667;28;20457;-57
2020/12/07 01:07:40;;;;;;;3.05;1.98;;;20.80;46.60;;;;;;6218838;28;20037;-55
2020/12/07 01:10:41;;;;;;;3.25;2.10;;;20.80;46.60;;;;;;6217980;28;20112;-56
2020/12/07 01:13:41;;;;;;;4.07;1.98;;;20.80;46.60;;;;;;6217992;28;20033;-52
2020/12/07 01:16:42;;;;;;;2.65;1.80;;;20.80;46.50;;;;;;6218245;28;20369;-52
2020/12/07 01:19:42;;;;;;;3.35;2.17;;;20.80;46.60;;;;;;6217729;28;20362;-51
2020/12/07 01:22:43;;;;;;;2.78;2.15;;;20.80;46.50;;;;;;6218087;28;20038;-53
2020/12/07 01:25:43;;;;;;;4.50;2.45;;;20.80;46.50;;;;;;6218171;28;20385;-51
2020/12/07 01:28:44;;;;;;;4.07;2.03;;;20.80;46.60;;;;;;6218019;28;20030;-53
2020/12/07 01:31:44;;;;;;;2.60;1.85;;;20.80;46.60;;;;;;6217169;28;20026;-55
2020/12/07 01:34:45;;;;;;;3.22;1.80;;;20.80;46.60;;;;;;6217662;28;20056;-53
2020/12/07 01:37:46;;;;;;;3.10;2.05;;;20.80;46.60;;;;;;6218280;28;20501;-58
2020/12/07 01:40:46;;;;;;;3.58;2.05;;;20.80;46.60;;;;;;6217189;28;20030;-52
2020/12/07 01:43:47;;;;;;;2.80;2.00;;;20.80;46.60;;;;;;6217761;28;20026;-56
2020/12/07 01:46:47;;;;;;;3.17;2.13;;;20.80;46.60;;;;;;6217233;28;20413;-52
2020/12/07 01:49:50;;;;;;;3.38;2.25;;;20.80;46.60;;;;;;6222158;28;20037;-55
2020/12/07 01:52:51;;;;;;;2.90;2.10;;;20.70;46.50;;;;;;6241477;28;20478;-55
2020/12/07 01:55:53;;;;;;;2.58;1.83;;;20.70;46.70;;;;;;6233033;28;20080;-54
2020/12/07 01:58:56;;;;;;;2.85;1.95;;;20.70;46.50;;;;;;6217248;28;20545;-56
2020/12/07 02:01:57;;;;;;;3.88;2.28;;;20.70;46.60;;;;;;6230662;28;20309;-55
2020/12/07 02:04:57;;;;;;;3.03;2.00;;;20.70;46.50;;;;;;6241642;28;20538;-52
2020/12/07 02:08:11;;;;;;;2.90;1.98;;;20.70;46.70;;;;;;6241428;28;20025;-56
2020/12/07 02:11:11;;;;;;;2.65;1.90;;;20.70;46.50;;;;;;6240818;28;20053;-56
2020/12/07 02:14:12;;;;;;;2.17;1.65;;;20.70;46.60;;;;;;6241546;28;20026;-53
2020/12/07 02:17:12;;;;;;;2.70;1.90;;;20.70;46.50;;;;;;6241133;28;20040;-56
2020/12/07 02:20:13;;;;;;;2.90;1.95;;;20.70;46.50;;;;;;6241182;28;20032;-55
2020/12/07 02:23:14;;;;;;;3.50;1.92;;;20.80;46.50;;;;;;6240990;28;20052;-55
2020/12/07 02:26:15;;;;;;;2.70;1.90;;;20.70;46.50;;;;;;6241018;28;20031;-56
2020/12/07 02:29:15;;;;;;;3.60;2.30;;;20.70;46.50;;;;;;6241107;28;20067;-53
2020/12/07 02:32:17;;;;;;;3.22;2.22;;;20.70;46.50;;;;;;6240588;28;20032;-54
2020/12/07 02:35:18;;;;;;;3.75;2.03;;;20.70;47.20;;;;;;6241106;28;20025;-55
2020/12/07 02:38:18;;;;;;;2.85;1.85;;;20.70;46.50;;;;;;6240947;28;20455;-57
2020/12/07 02:41:19;;;;;;;3.63;2.20;;;20.70;46.50;;;;;;6242559;28;20322;-56
2020/12/07 02:44:19;;;;;;;2.92;2.10;;;20.70;46.60;;;;;;6241246;28;20029;-57
2020/12/07 02:47:20;;;;;;;3.90;2.00;;;20.70;46.60;;;;;;6240764;28;20022;-53
2020/12/07 02:50:20;;;;;;;2.42;1.65;;;20.70;46.60;;;;;;6240624;28;20037;-51
2020/12/07 02:53:21;;;;;;;3.35;1.60;;;20.70;46.60;;;;;;6240475;28;20022;-55
2020/12/07 02:56:22;;;;;;;3.85;2.33;;;20.70;46.50;;;;;;6241346;28;20216;-53
2020/12/07 02:59:22;;;;;;;3.50;1.85;;;20.70;46.50;;;;;;6240097;28;20022;-56
2020/12/07 03:02:23;;;;;;;3.15;2.20;;;20.70;46.50;;;;;;6241175;28;20022;-56
2020/12/07 03:05:23;;;;;;;3.10;2.03;;;20.70;46.50;;;;;;6240361;28;20057;-55
2020/12/07 03:08:24;;;;;;;2.22;1.60;;;20.70;46.50;;;;;;6240930;28;20339;-55
2020/12/07 03:11:24;;;;;;;3.90;2.58;;;20.70;46.50;;;;;;6233529;28;20346;-55
2020/12/07 03:14:26;;;;;;;3.65;2.15;;;20.60;46.50;;;;;;6216299;28;20021;-55
2020/12/07 03:17:26;;;;;;;2.80;1.88;;;20.70;46.50;;;;;;6216420;28;20025;-56
2020/12/07 03:20:27;;;;;;;3.13;1.90;;;20.60;46.40;;;;;;6215888;28;20026;-56
2020/12/07 03:23:27;;;;;;;3.30;2.25;;;20.60;46.40;;;;;;6216033;28;20575;-54
2020/12/07 03:26:28;;;;;;;3.47;2.38;;;20.70;46.50;;;;;;6216213;28;20026;-57
2020/12/07 03:29:28;;;;;;;3.25;2.00;;;20.60;46.40;;;;;;6215860;28;20044;-54
2020/12/07 03:32:29;;;;;;;3.88;1.98;;;20.60;46.40;;;;;;6215731;28;20030;-54
2020/12/07 03:35:29;;;;;;;2.78;2.20;;;20.60;46.50;;;;;;6215856;28;20450;-54
2020/12/07 03:38:30;;;;;;;3.47;1.95;;;20.60;46.50;;;;;;6216201;28;20026;-56
2020/12/07 03:41:31;;;;;;;3.25;2.17;;;20.60;46.50;;;;;;6219494;28;20048;-55
2020/12/07 03:44:31;;;;;;;2.70;2.00;;;20.60;46.40;;;;;;6220288;28;20341;-54
2020/12/07 03:47:32;;;;;;;4.10;2.47;;;20.60;46.50;;;;;;6220088;28;20033;-58
2020/12/07 03:50:32;;;;;;;2.92;2.17;;;20.60;46.50;;;;;;6219860;28;20030;-57
2020/12/07 03:53:35;;;;;;;2.92;2.10;;;20.60;46.50;;;;;;6220087;28;20030;-54
2020/12/07 03:56:35;;;;;;;3.45;2.10;;;20.60;46.50;;;;;;6219847;28;20334;-54
2020/12/07 03:59:36;;;;;;;2.90;2.08;;;20.60;46.50;;;;;;6219940;28;20026;-51
2020/12/07 04:02:37;;;;;;;3.25;2.15;;;20.60;46.50;;;;;;6219736;28;20084;-54
2020/12/07 04:05:39;;;;;;;2.80;1.95;;;20.60;46.50;;;;;;6219960;28;20041;-55
2020/12/07 04:08:39;;;;;;;3.00;2.00;;;20.60;46.50;;;;;;6219607;28;20037;-55
2020/12/07 04:11:40;;;;;;;3.72;2.50;;;20.60;46.50;;;;;;6220849;28;20034;-53
2020/12/07 04:14:41;;;;;;;4.00;2.33;;;20.60;46.80;;;;;;6219458;28;20036;-52
2020/12/07 04:17:41;;;;;;;4.03;2.20;;;20.60;46.40;;;;;;6219779;28;20184;-57
2020/12/07 04:20:42;;;;;;;3.15;2.08;;;20.60;46.40;;;;;;6219196;28;20057;-57
2020/12/07 04:23:42;;;;;;;3.13;1.92;;;20.60;46.50;;;;;;6219616;28;20112;-55
2020/12/07 04:26:43;;;;;;;3.45;2.13;;;20.60;46.40;;;;;;6219115;28;20433;-56
2020/12/07 04:29:43;;;;;;;4.03;2.40;;;20.60;46.50;;;;;;6219321;28;20037;-55
2020/12/07 04:32:44;;;;;;;3.05;1.88;;;20.60;46.50;;;;;;6218687;28;20014;-56
2020/12/07 04:35:44;;;;;;;2.85;1.98;;;20.60;46.50;;;;;;6219005;28;20426;-56
2020/12/07 04:38:45;;;;;;;4.68;2.42;;;20.60;46.50;;;;;;6218626;28;20033;-53
2020/12/07 04:41:45;;;;;;;3.50;2.60;;;20.60;46.50;;;;;;6218036;28;20033;-56
2020/12/07 04:44:46;;;;;;;2.92;2.20;;;20.60;46.50;;;;;;6218986;28;20051;-58
2020/12/07 04:47:50;;;;;;;3.35;2.30;;;20.50;46.40;;;;;;6218457;28;20034;-56
2020/12/07 04:50:52;;;;;;;3.03;2.17;;;20.60;46.50;;;;;;6218156;28;20076;-54
2020/12/07 04:53:55;;;;;;;3.58;2.42;;;20.50;46.40;;;;;;6218100;28;20367;-57
2020/12/07 04:56:57;;;;;;;4.13;2.45;;;20.50;46.40;;;;;;6218797;28;20026;-51
2020/12/07 04:59:58;;;;;;;3.22;2.45;;;20.60;46.50;;;;;;6217814;28;20061;-55
2020/12/07 05:02:59;;;;;;;2.60;2.03;;;20.50;46.40;;;;;;6218143;28;20040;-57
2020/12/07 05:06:00;;;;;;;3.30;2.22;;;20.50;46.40;;;;;;6218681;28;20076;-53
2020/12/07 05:09:00;;;;;;;3.53;2.38;;;20.60;46.50;;;;;;6217615;28;20393;-56
2020/12/07 05:12:05;;;;;;;4.20;2.65;;;20.50;46.40;;;;;;6217951;28;20026;-51
2020/12/07 05:15:10;;;;;;;3.42;2.30;;;20.60;46.40;;;;;;6217772;28;20109;-56
2020/12/07 05:18:11;;;;;;;4.88;2.55;;;20.60;46.40;;;;;;6218098;28;20034;-55
2020/12/07 05:21:16;;;;;;;3.50;2.30;;;20.60;46.40;;;;;;6217660;28;20061;-57
2020/12/07 05:24:17;;;;;;;4.00;2.40;;;20.60;46.40;;;;;;6217804;28;20033;-57
2020/12/07 05:27:19;;;;;;;3.33;2.30;;;20.60;46.30;;;;;;6217637;28;20037;-53
2020/12/07 05:30:27;;;;;;;3.05;2.10;;;20.60;46.40;;;;;;6217451;28;20238;-51
2020/12/07 05:33:30;;;;;;;4.18;2.40;;;20.60;46.50;;;;;;6217631;28;20034;-54
2020/12/07 05:36:31;;;;;;;3.85;2.30;;;20.60;46.50;;;;;;6217782;28;20030;-55
2020/12/07 05:39:32;;;;;;;2.40;1.92;;;20.60;46.50;;;;;;6243162;23;20103;-64
2020/12/07 05:42:33;;;;;;;2.97;2.05;;;20.60;46.50;;;;;;6219464;28;20084;-66
2020/12/07 05:45:34;;;;;;;3.55;2.38;;;20.60;46.50;;;;;;6204381;28;20024;-66
2020/12/07 05:48:35;;;;;;;3.45;1.98;;;20.60;46.50;;;;;;6222053;28;20483;-67
2020/12/07 05:51:38;;;;;;;3.60;2.33;;;20.60;46.50;;;;;;6239639;28;20131;-66
2020/12/07 05:54:39;;;;;;;3.55;2.33;;;20.60;46.50;;;;;;6245901;28;20108;-67
2020/12/07 05:57:48;;;;;;;3.17;2.17;;;20.60;46.50;;;;;;6246717;28;20010;-67
2020/12/07 06:00:54;;;;;;;3.55;2.13;;;20.60;46.50;;;;;;6228085;28;20507;-66
2020/12/07 06:03:55;;;;;;;4.03;2.20;;;20.60;46.50;;;;;;6229259;28;20100;-67
2020/12/07 06:07:00;;;;;;;3.83;2.50;;;20.60;46.50;;;;;;6247227;28;20025;-67
2020/12/07 06:10:02;;;;;;;3.08;2.20;;;20.60;46.50;;;;;;6246472;28;20025;-68
2020/12/07 06:13:07;;;;;;;3.10;2.20;;;20.70;46.40;;;;;;6244902;28;20022;-65
2020/12/07 06:16:07;;;;;;;2.53;2.00;;;20.80;46.30;;;;;;6235130;28;20062;-67
2020/12/07 06:19:15;;;;;;;4.20;2.30;;;20.80;46.20;;;;;;6268951;28;20041;-67
2020/12/07 06:22:19;;;;;;;4.05;2.63;;;20.90;46.20;;;;;;6268916;28;20040;-68
2020/12/07 06:25:19;;;;;;;3.63;2.20;;;20.90;46.00;;;;;;6269618;28;20036;-67
2020/12/07 06:28:26;;;;;;;4.03;2.47;;;21.00;46.00;;;;;;6270041;28;20061;-67
2020/12/07 06:31:28;;;;;;;3.40;2.25;;;21.00;46.00;;;;;;6271036;28;20036;-67
2020/12/07 06:34:39;;;;;;;3.30;2.10;;;21.10;46.00;;;;;;6252442;28;20120;-67
2020/12/07 06:37:43;;;;;;;15.15;2.75;;;21.10;46.00;;;;;;6268736;28;20021;-67
2020/12/07 06:40:43;;;;;;;3.65;2.35;;;21.00;46.40;;;;;;6240462;28;20415;-65
2020/12/07 06:43:56;;;;;;;11.70;6.22;;;20.80;46.20;;;;;;6240989;28;20025;-66
2020/12/07 06:47:01;;;;;;;10.05;5.65;;;20.80;45.30;;;;;;6237414;28;20025;-67
2020/12/07 06:50:12;;;;;;;13.38;5.68;;;20.90;45.10;;;;;;6222068;28;20030;-66
2020/12/07 06:56:32;;;;;;;9.55;5.63;;;21.10;44.20;;;;;;6245015;28;20068;-65
2020/12/07 06:59:32;;;;;;;16.23;6.07;;;21.20;44.20;;;;;;6241543;28;20036;-68
2020/12/07 07:02:33;;;;;;;19.75;5.63;;;21.30;44.40;;;;;;6237653;28;20053;-68
2020/12/07 07:05:33;;;;;;;12.68;5.20;;;21.30;44.40;;;;;;6212102;28;20052;-69
2020/12/07 07:08:36;;;;;;;9.02;5.30;;;21.40;44.50;;;;;;6225041;28;20018;-67
2020/12/07 07:11:38;;;;;;;11.18;5.22;;;21.40;44.60;;;;;;6242967;28;20108;-65
2020/12/07 07:14:48;;;;;;;10.02;4.88;;;21.40;44.70;;;;;;6253656;28;20033;-63
2020/12/07 07:17:49;;;;;;;10.40;4.93;;;21.50;44.80;;;;;;6241871;28;20419;-68
2020/12/07 07:20:49;;;;;;;8.32;4.85;;;21.50;44.90;;;;;;6244014;28;20022;-69
2020/12/07 07:23:52;;;;;;;10.23;4.80;;;21.50;45.00;;;;;;6255531;28;20056;-66
2020/12/07 07:27:00;;;;;;;13.38;4.53;;;21.50;45.00;;;;;;6249077;28;20097;-64
2020/12/07 07:30:02;;;;;;;9.25;4.70;;;21.60;45.20;;;;;;6252337;28;20030;-65
2020/12/07 07:33:02;;;;;;;8.70;4.75;;;21.60;45.10;;;;;;6228789;28;20467;-68
2020/12/07 07:36:03;;;;;;;6.38;4.60;;;21.60;45.20;;;;;;6243073;28;20022;-68
2020/12/07 07:39:03;;;;;;;8.25;4.38;;;21.60;45.10;;;;;;6252014;28;20053;-67
2020/12/07 07:42:08;;;;;;;8.90;4.68;;;21.60;45.80;;;;;;6240992;28;20022;-67
2020/12/07 07:45:09;;;;;;;5.80;3.85;;;21.70;45.50;;;;;;6233799;28;20764;-67
2020/12/07 08:11:52;;;;;;;8.02;4.10;;;21.70;46.10;;;;;;6248653;28;20033;-66
2020/12/07 08:12:12;;;;;;;12.57;4.20;;;21.70;45.90;;;;;;6245142;28;20029;-65
2020/12/07 08:18:06;;;;;;;13.20;3.97;;;21.70;45.70;;;;;;6244963;28;20264;-68
2020/12/07 08:21:06;;;;;;;29.40;4.13;;;21.70;45.60;;;;;;6244994;28;20040;-66
2020/12/07 08:24:09;;;;;;;13.18;5.35;;;21.70;46.50;;;;;;6246438;28;20403;-65
2020/12/07 08:27:12;;;;;;;13.23;5.88;;;21.60;45.30;;;;;;6245155;28;20025;-64
2020/12/07 08:30:13;;;;;;;16.77;5.03;;;21.70;45.40;;;;;;6228606;28;20430;-64
2020/12/07 08:33:13;;;;;;;13.90;4.95;;;21.70;45.90;;;;;;6246734;28;20025;-66
2020/12/07 08:36:16;;;;;;;8.98;4.47;;;21.90;46.30;;;;;;6237261;28;20032;-66
2020/12/07 08:39:17;;;;;;;8.65;4.05;;;21.70;45.60;;;;;;6244672;28;20136;-66
2020/12/07 08:42:18;;;;;;;8.48;4.47;;;21.70;45.50;;;;;;6244763;28;20041;-66
2020/12/07 08:45:18;;;;;;;11.32;4.53;;;21.70;45.60;;;;;;6245363;28;20053;-66
2020/12/07 08:48:19;;;;;;;9.90;4.57;;;21.70;45.70;;;;;;6244368;28;20492;-63
2020/12/07 08:51:21;;;;;;;24.52;4.68;;;21.70;46.20;;;;;;6245133;28;20553;-69
2020/12/07 08:54:21;;;;;;;11.25;4.47;;;21.70;46.50;;;;;;6246508;28;20029;-70
2020/12/07 08:57:22;;;;;;;12.10;4.30;;;21.60;46.20;;;;;;6236056;28;20053;-71
2020/12/07 09:00:22;;;;;;;21.67;4.68;;;21.60;46.60;;;;;;6245326;28;20064;-68
2020/12/07 09:03:23;;;;;;;18.75;4.68;;;21.60;46.10;;;;;;6242853;28;20079;-64
2020/12/07 09:06:23;;;;;;;49.97;6.10;;;21.60;46.40;;;;;;6245340;28;20061;-64
2020/12/07 09:09:24;;;;;;;17.55;4.45;;;21.80;46.90;;;;;;6226884;28;20056;-67
2020/12/07 09:12:24;;;;;;;9.70;3.85;;;21.90;46.30;;;;;;6245538;28;20024;-68
2020/12/07 09:15:25;;;;;;;10.85;5.00;;;21.80;46.20;;;;;;6243534;28;20029;-68
2020/12/07 09:18:27;;;;;;;9.90;4.38;;;21.80;46.80;;;;;;6244145;28;20044;-68
2020/12/07 09:21:27;;;;;;;18.50;4.30;;;21.80;46.00;;;;;;6244160;28;20383;-63
2020/12/07 09:24:27;;;;;;;23.00;5.03;;;21.80;46.20;;;;;;6244885;28;20045;-64
2020/12/07 09:27:28;;;;;;;8.80;3.47;;;21.90;46.50;;;;;;6244987;28;20039;-70
2020/12/07 09:30:28;;;;;;;6.22;3.50;;;21.90;46.30;;;;;;6225858;28;20184;-63
2020/12/07 09:33:29;;;;;;;6.75;3.40;;;21.80;46.40;;;;;;6243048;28;20064;-63
2020/12/07 09:36:30;;;;;;;10.52;3.38;;;21.70;46.30;;;;;;6243679;28;20128;-64
2020/12/07 09:39:30;;;;;;;11.25;3.85;;;21.70;46.60;;;;;;6243424;28;20095;-65
2020/12/07 09:42:32;;;;;;;15.27;3.72;;;21.70;46.60;;;;;;6244662;28;20147;-64
2020/12/07 09:45:32;;;;;;;9.27;3.78;;;21.70;46.50;;;;;;6244275;28;20036;-65
2020/12/07 09:48:33;;;;;;;9.75;3.72;;;21.60;46.60;;;;;;6242588;28;20041;-64
2020/12/07 09:51:33;;;;;;;7.07;3.60;;;21.60;47.00;;;;;;6242422;28;20025;-65
2020/12/07 09:54:37;;;;;;;9.13;3.53;;;21.60;46.90;;;;;;6244155;28;20043;-64
2020/12/07 09:57:38;;;;;;;6.82;3.58;;;21.60;46.90;;;;;;6244398;28;20231;-67
2020/12/07 10:00:38;;;;;;;9.02;3.83;;;21.70;46.90;;;;;;6243007;28;20029;-67
2020/12/07 10:03:39;;;;;;;6.25;3.35;;;21.70;46.80;;;;;;6243643;28;20411;-65
2020/12/07 10:06:39;;;;;;;6.95;3.30;;;21.60;46.80;;;;;;6243837;28;20026;-66
2020/12/07 10:09:40;;;;;;;6.05;3.40;;;21.60;46.80;;;;;;6245644;28;20041;-64
2020/12/07 10:12:40;;;;;;;14.27;3.63;;;21.60;46.80;;;;;;6245459;28;20044;-64
2020/12/07 10:15:41;;;;;;;7.03;3.53;;;21.60;46.90;;;;;;6228786;28;20058;-64
2020/12/07 10:18:41;;;;;;;6.95;3.58;;;21.60;46.80;;;;;;6233791;28;20036;-65
2020/12/07 10:21:42;;;;;;;7.15;3.42;;;21.60;46.80;;;;;;6243032;28;20033;-65
2020/12/07 10:24:42;;;;;;;9.93;4.07;;;21.60;47.20;;;;;;6243393;28;20021;-65
2020/12/07 10:27:43;;;;;;;8.90;3.35;;;21.60;47.00;;;;;;6243563;28;20489;-66
2020/12/07 10:30:43;;;;;;;16.67;3.60;;;21.60;46.80;;;;;;6224782;28;20617;-62
2020/12/07 10:33:44;;;;;;;9.65;3.40;;;21.70;46.90;;;;;;6243649;28;20093;-63
2020/12/07 10:36:46;;;;;;;7.97;3.60;;;21.70;46.80;;;;;;6244503;28;20029;-61
2020/12/07 10:39:46;;;;;;;10.30;3.78;;;21.80;46.70;;;;;;6242884;28;20053;-63
2020/12/07 10:42:47;;;;;;;6.15;3.28;;;21.80;46.70;;;;;;6243587;28;20026;-68
2020/12/07 10:45:47;;;;;;;11.52;3.33;;;21.80;46.70;;;;;;6243693;28;20225;-67
2020/12/07 10:48:48;;;;;;;8.60;5.28;;;21.80;46.90;;;;;;6242825;28;20021;-69
2020/12/07 10:51:48;;;;;;;18.05;8.27;;;21.60;45.70;;;;;;6247586;28;20510;-68
2020/12/07 10:54:49;;;;;;;16.17;9.50;;;21.40;43.00;;;;;;6229465;28;20022;-68
2020/12/07 10:57:49;;;;;;;20.40;8.98;;;21.20;41.10;;;;;;6248496;28;20029;-66
2020/12/07 11:00:51;;;;;;;21.48;10.80;;;21.10;40.30;;;;;;6247845;28;20040;-66
2020/12/07 11:03:52;;;;;;;22.90;12.30;;;21.10;38.60;;;;;;6248757;28;20017;-67
2020/12/07 11:06:54;;;;;;;18.15;9.75;;;21.00;37.70;;;;;;6250674;28;20048;-67
2020/12/07 11:09:55;;;;;;;12.43;6.80;;;21.00;39.90;;;;;;6253048;28;20025;-67
2020/12/07 11:13:01;;;;;;;17.35;8.70;;;21.20;42.80;;;;;;6251107;28;20044;-67
2020/12/07 11:16:03;;;;;;;14.23;7.68;;;21.30;41.50;;;;;;6242468;28;20117;-69
2020/12/07 11:19:03;;;;;;;13.18;7.18;;;21.30;41.80;;;;;;6254001;28;20164;-69
2020/12/07 11:22:04;;;;;;;17.77;8.05;;;21.30;42.50;;;;;;6247881;28;20034;-65
2020/12/07 11:25:04;;;;;;;11.77;7.03;;;21.40;41.40;;;;;;6244235;28;20112;-68
2020/12/07 11:28:05;;;;;;;37.35;8.07;;;21.40;43.10;;;;;;6205267;28;20083;-66
2020/12/07 11:31:08;;;;;;;12.30;5.95;;;21.40;42.50;;;;;;6236369;28;20021;-64
2020/12/07 11:34:08;;;;;;;16.08;7.55;;;21.60;44.30;;;;;;6229144;28;20030;-69
2020/12/07 11:37:09;;;;;;;18.80;6.85;;;21.60;43.90;;;;;;6245109;28;20056;-67
2020/12/07 11:40:18;;;;;;;15.57;6.07;;;21.60;43.40;;;;;;6246192;28;20037;-67
2020/12/07 11:43:33;;;;;;;15.70;6.57;;;21.50;45.30;;;;;;6234528;23;20532;-63
2020/12/07 11:46:37;;;;;;;13.13;6.38;;;21.40;45.60;;;;;;6183614;28;20112;-63
2020/12/07 11:49:37;;;;;;;11.25;6.47;;;21.40;45.10;;;;;;6189161;28;20034;-63
2020/12/07 11:52:38;;;;;;;15.73;6.85;;;21.40;45.30;;;;;;6189116;28;20078;-63
2020/12/07 11:55:38;;;;;;;9.57;5.50;;;21.40;45.30;;;;;;6186274;28;20033;-63
2020/12/07 11:58:39;;;;;;;9.98;5.80;;;21.40;45.40;;;;;;6179043;28;20038;-63
2020/12/07 12:01:39;;;;;;;10.55;5.85;;;21.40;45.40;;;;;;6182951;28;20034;-63
2020/12/07 12:04:40;;;;;;;11.93;5.50;;;21.40;45.30;;;;;;6199322;28;20116;-63
2020/12/07 12:07:40;;;;;;;12.05;6.03;;;21.40;45.30;;;;;;6183106;28;20401;-63
2020/12/07 12:10:47;;;;;;;8.50;5.35;;;21.30;45.10;;;;;;6172689;28;20114;-63
2020/12/07 12:13:47;;;;;;;8.13;5.40;;;21.30;45.30;;;;;;6187748;28;20035;-63
2020/12/07 12:16:48;;;;;;;7.88;5.30;;;21.30;45.10;;;;;;6179660;28;20036;-62
2020/12/07 12:19:48;;;;;;;8.55;5.28;;;21.30;45.10;;;;;;6198008;28;20531;-62
2020/12/07 12:22:49;;;;;;;7.30;5.07;;;21.30;45.20;;;;;;6183749;28;20414;-62
2020/12/07 12:25:49;;;;;;;8.90;5.18;;;21.30;45.10;;;;;;6173427;28;20113;-62
2020/12/07 12:28:50;;;;;;;8.27;5.18;;;21.30;45.10;;;;;;6171508;28;20059;-62
2020/12/07 12:31:50;;;;;;;8.10;5.18;;;21.30;45.10;;;;;;6172232;28;20062;-62
2020/12/07 12:34:51;;;;;;;8.05;5.07;;;21.30;45.20;;;;;;6172417;28;20031;-62
2020/12/07 12:37:51;;;;;;;7.43;4.97;;;21.30;45.10;;;;;;6171823;28;20035;-62
2020/12/07 12:40:52;;;;;;;10.07;5.03;;;21.30;44.90;;;;;;6171976;28;20073;-62
2020/12/07 12:43:53;;;;;;;9.00;5.43;;;21.30;45.00;;;;;;6171140;28;20115;-63
2020/12/07 12:46:54;;;;;;;7.30;4.95;;;21.30;44.90;;;;;;6183867;28;20030;-62
2020/12/07 12:49:54;;;;;;;7.25;4.90;;;21.30;45.10;;;;;;6170813;28;20432;-62
2020/12/07 12:52:55;;;;;;;8.07;4.97;;;21.30;45.10;;;;;;6171558;28;20027;-62
2020/12/07 12:55:56;;;;;;;8.55;4.75;;;21.30;44.60;;;;;;6171407;28;20440;-62
2020/12/07 12:58:56;;;;;;;8.95;4.97;;;21.40;44.40;;;;;;6171228;28;20037;-62
2020/12/07 13:01:57;;;;;;;8.20;5.25;;;21.40;44.40;;;;;;6171346;28;20035;-62
2020/12/07 13:04:57;;;;;;;8.52;4.70;;;21.40;44.30;;;;;;6171315;28;20161;-63
2020/12/07 13:07:58;;;;;;;7.38;4.68;;;21.40;44.30;;;;;;6171203;28;20109;-64
2020/12/07 13:10:59;;;;;;;7.32;4.57;;;21.40;44.30;;;;;;6170233;28;20075;-64
2020/12/07 13:14:00;;;;;;;7.82;5.18;;;21.40;44.60;;;;;;6162545;28;20121;-64
2020/12/07 13:17:05;;;;;;;6.50;4.45;;;21.40;44.60;;;;;;6170930;28;20027;-63
2020/12/07 13:20:08;;;;;;;6.68;4.32;;;21.40;44.80;;;;;;6170841;28;20251;-63
2020/12/07 13:23:19;;;;;;;6.57;4.47;;;21.40;44.60;;;;;;6170768;28;20512;-63
2020/12/07 13:29:23;;;;;;;7.55;4.57;;;21.40;44.80;;;;;;6169911;28;20090;-64
2020/12/07 13:32:23;;;;;;;6.68;4.07;;;21.40;44.90;;;;;;6170958;28;20069;-62
2020/12/07 13:35:24;;;;;;;17.88;4.35;;;21.40;45.20;;;;;;6169646;28;20023;-63
2020/12/07 13:38:24;;;;;;;72.60;8.07;;;21.40;44.70;;;;;;6169338;28;20100;-64
2020/12/07 13:41:25;;;;;;;264.88;19.17;;;21.40;44.30;;;;;;6170378;28;20487;-69
2020/12/07 13:44:26;;;;;;;112.22;10.23;;;21.10;43.20;;;;;;6179474;28;20030;-65
2020/12/07 13:47:27;;;;;;;90.70;12.25;;;20.90;44.70;;;;;;6169622;28;20038;-68
2020/12/07 13:52:09;;;;;;;70.13;10.48;;;21.10;43.80;;;;;;6338681;27;21097;-65
2020/12/07 13:55:10;;;;;;;73.20;10.25;;;21.20;44.30;;;;;;6317487;28;20033;-70
2020/12/07 13:58:10;;;;;;;61.25;10.88;;;21.30;44.30;;;;;;6315243;28;20024;-68
2020/12/07 14:01:11;;;;;;;41.17;9.93;;;21.40;44.40;;;;;;6325210;28;20036;-71
2020/12/07 14:07:26;;;;;;;42.30;8.75;;;21.50;44.60;;;;;;6312411;28;20055;-71
2020/12/07 14:10:26;;;;;;;42.63;9.05;;;21.50;44.60;;;;;;6312379;28;20024;-70
2020/12/07 14:13:27;;;;;;;36.60;8.48;;;21.50;44.60;;;;;;6330989;28;20024;-69
2020/12/07 14:16:30;;;;;;;31.48;8.43;;;21.50;44.70;;;;;;6315391;28;20596;-67
2020/12/07 14:19:37;;;;;;;26.65;7.50;;;21.60;44.70;;;;;;6312504;28;20024;-68
2020/12/07 14:22:42;;;;;;;28.25;8.10;;;21.80;44.50;;;;;;6313646;28;20016;-68
2020/12/07 14:25:57;;;;;;;33.85;7.15;;;21.80;44.60;;;;;;6312152;28;20135;-67
2020/12/07 14:42:31;;;;;;;24.10;6.85;;;21.70;45.00;;;;;;6311745;28;20560;-68
2020/12/07 14:45:37;;;;;;;15.52;6.10;;;21.70;45.10;;;;;;6311637;28;20073;-70
2020/12/07 14:48:39;;;;;;;13.35;6.18;;;21.70;44.90;;;;;;6311436;28;20057;-69
2020/12/07 14:51:46;;;;;;;13.73;5.47;;;21.80;45.00;;;;;;6312197;28;20024;-67
2020/12/07 14:54:54;;;;;;;19.90;5.75;;;21.90;44.90;;;;;;6311870;28;20234;-70
2020/12/07 15:14:11;;;;;;;14.50;4.75;;;21.70;45.10;;;;;;6294713;28;20025;-66
2020/12/07 15:17:11;;;;;;;12.15;5.40;;;21.70;45.30;;;;;;6293955;28;20051;-68
2020/12/07 15:20:12;;;;;;;10.25;4.30;;;21.70;45.40;;;;;;6293680;28;20394;-66
2020/12/07 15:23:12;;;;;;;11.60;4.80;;;21.70;45.30;;;;;;6292600;28;20047;-64
2020/12/07 15:26:14;;;;;;;12.20;5.30;;;21.70;45.40;;;;;;6287440;28;20051;-68
2020/12/07 15:29:14;;;;;;;8.85;5.32;;;21.70;45.30;;;;;;6294765;28;20055;-64
2020/12/07 15:32:15;;;;;;;11.82;4.78;;;21.70;45.30;;;;;;6293857;28;20029;-65
2020/12/07 15:35:15;;;;;;;11.07;4.50;;;21.80;45.30;;;;;;6294013;28;20074;-63
2020/12/07 15:38:16;;;;;;;9.77;4.50;;;21.80;45.10;;;;;;6293750;28;20032;-66
2020/12/07 15:41:17;;;;;;;9.48;4.70;;;21.90;45.00;;;;;;6293908;28;20056;-67
2020/12/07 15:44:17;;;;;;;8.88;4.25;;;21.90;44.80;;;;;;6294453;28;20097;-65
2020/12/07 15:47:18;;;;;;;14.75;5.00;;;21.90;45.00;;;;;;6296716;28;20386;-62
2020/12/07 15:50:19;;;;;;;12.13;4.07;;;21.90;45.10;;;;;;6294941;28;20512;-64
2020/12/07 15:53:20;;;;;;;13.25;4.10;;;22.00;45.10;;;;;;6294148;28;20426;-64
2020/12/07 15:56:20;;;;;;;11.02;4.57;;;21.90;45.10;;;;;;6294445;28;20100;-68
2020/12/07 15:59:21;;;;;;;11.27;4.07;;;21.80;45.00;;;;;;6290917;28;20051;-68
2020/12/07 16:02:21;;;;;;;11.02;3.70;;;21.80;45.20;;;;;;6293841;28;20048;-68
2020/12/07 16:05:22;;;;;;;7.28;3.78;;;21.70;45.30;;;;;;6294424;28;20040;-63
2020/12/07 16:08:22;;;;;;;19.42;3.90;;;21.70;45.30;;;;;;6293956;28;20029;-65
2020/12/07 16:11:23;;;;;;;10.55;3.85;;;21.80;45.50;;;;;;6293275;28;20025;-65
2020/12/07 16:14:23;;;;;;;8.82;3.33;;;21.80;45.10;;;;;;6292086;28;20379;-66
2020/12/07 16:17:24;;;;;;;7.18;3.63;;;21.80;45.30;;;;;;6293287;28;20024;-67
2020/12/07 16:20:25;;;;;;;9.32;3.70;;;21.70;45.30;;;;;;6293523;28;20040;-67
2020/12/07 16:23:25;;;;;;;9.90;3.80;;;21.70;45.50;;;;;;6291726;28;20418;-67
2020/12/07 16:26:26;;;;;;;11.18;3.70;;;21.80;45.30;;;;;;6293411;28;20104;-68
2020/12/07 16:29:26;;;;;;;9.13;3.50;;;21.90;45.30;;;;;;6293267;28;20028;-65
2020/12/07 16:32:27;;;;;;;5.93;3.38;;;21.80;45.50;;;;;;6292277;28;20479;-63
2020/12/07 16:35:27;;;;;;;5.97;3.10;;;21.80;45.50;;;;;;6293086;28;20012;-63
2020/12/07 16:38:28;;;;;;;5.30;3.40;;;21.80;45.60;;;;;;6290752;28;20043;-64
2020/12/07 16:41:28;;;;;;;6.45;3.33;;;21.70;45.60;;;;;;6292234;28;20028;-64
2020/12/07 16:44:29;;;;;;;7.85;3.45;;;21.70;45.60;;;;;;6292237;28;20039;-66